Time;durP1;ratioP1;P1;durP2;ratioP2;P2;SDS_P1;SDS_P2;PMS_P1;PMS_P2;Temp;Humidity;BMP_temperature;BMP_pressure;BME280_temperature;BME280_humidity;BME280_pressure;Samples;Min_cycle;Max_cycle;Signal;HPM_P1;HPM_P2
2024/02/25 00:00:47;;;;;;;7.43;2.40;;;;;;;;;;5016650;28;20026;-58
2024/02/25 00:03:12;;;;;;;9.05;2.70;;;;;;;;;;5017895;28;20410;-56
2024/02/25 00:05:39;;;;;;;6.32;2.60;;;;;;;;;;5017716;28;20033;-57
2024/02/25 00:08:05;;;;;;;10.30;3.30;;;;;;;;;;5025289;28;20026;-57
2024/02/25 00:10:30;;;;;;;7.93;3.07;;;;;;;;;;5019160;28;20044;-58
2024/02/25 00:12:55;;;;;;;6.67;2.67;;;;;;;;;;5014935;28;20030;-57
2024/02/25 00:15:20;;;;;;;6.57;2.57;;;;;;;;;;5013415;28;20072;-56
2024/02/25 00:17:45;;;;;;;8.30;2.70;;;;;;;;;;5005367;28;20018;-57
2024/02/25 00:20:10;;;;;;;7.78;2.92;;;;;;;;;;5013944;28;20026;-57
2024/02/25 00:22:36;;;;;;;7.03;2.60;;;;;;;;;;5013536;28;20386;-57
2024/02/25 00:25:01;;;;;;;8.20;3.03;;;;;;;;;;5011902;28;20101;-58
2024/02/25 00:27:26;;;;;;;7.55;3.05;;;;;;;;;;5012251;28;20025;-58
2024/02/25 00:29:51;;;;;;;6.10;2.80;;;;;;;;;;5013726;28;20076;-57
2024/02/25 00:32:16;;;;;;;7.15;2.83;;;;;;;;;;5013292;28;20451;-57
2024/02/25 00:34:41;;;;;;;6.80;2.57;;;;;;;;;;5009877;28;20121;-57
2024/02/25 00:37:07;;;;;;;6.32;3.28;;;;;;;;;;5010701;28;20032;-58
2024/02/25 00:39:32;;;;;;;6.80;3.00;;;;;;;;;;5011347;28;20102;-56
2024/02/25 00:42:01;;;;;;;7.60;2.90;;;;;;;;;;5010432;28;20375;-57
2024/02/25 00:44:26;;;;;;;7.80;2.97;;;;;;;;;;5006313;28;20389;-58
2024/02/25 00:46:52;;;;;;;7.22;3.00;;;;;;;;;;5009282;28;20022;-58
2024/02/25 00:49:17;;;;;;;7.60;2.77;;;;;;;;;;5012186;28;20015;-57
2024/02/25 00:51:42;;;;;;;7.50;3.03;;;;;;;;;;5014207;28;20033;-56
2024/02/25 00:54:08;;;;;;;6.73;2.73;;;;;;;;;;5019592;28;20021;-58
2024/02/25 00:56:33;;;;;;;8.18;3.30;;;;;;;;;;5024538;28;20439;-57
2024/02/25 00:58:58;;;;;;;8.40;3.20;;;;;;;;;;5015037;28;20044;-58
2024/02/25 01:01:23;;;;;;;7.20;2.85;;;;;;;;;;5013475;28;20389;-57
2024/02/25 01:03:48;;;;;;;7.00;2.87;;;;;;;;;;5013094;28;20029;-57
2024/02/25 01:06:14;;;;;;;7.03;2.97;;;;;;;;;;5013487;28;20131;-57
2024/02/25 01:08:39;;;;;;;7.53;2.87;;;;;;;;;;5013052;28;20029;-57
2024/02/25 01:11:10;;;;;;;9.35;3.20;;;;;;;;;;5013178;28;20449;-57
2024/02/25 01:13:36;;;;;;;7.30;3.17;;;;;;;;;;5015146;28;20017;-59
2024/02/25 01:16:02;;;;;;;8.13;3.40;;;;;;;;;;5013669;28;20030;-58
2024/02/25 01:18:29;;;;;;;8.40;3.40;;;;;;;;;;5012006;28;20022;-59
2024/02/25 01:20:54;;;;;;;7.30;3.30;;;;;;;;;;5014504;28;20041;-57
2024/02/25 01:23:19;;;;;;;8.07;3.95;;;;;;;;;;5013207;28;20068;-58
2024/02/25 01:25:45;;;;;;;6.88;3.28;;;;;;;;;;5012503;28;20042;-57
2024/02/25 01:28:10;;;;;;;8.60;3.63;;;;;;;;;;5012905;28;20459;-58
2024/02/25 01:30:36;;;;;;;8.02;3.65;;;;;;;;;;5012801;28;20018;-58
2024/02/25 01:33:01;;;;;;;7.95;3.90;;;;;;;;;;5012668;28;20084;-57
2024/02/25 01:35:26;;;;;;;8.40;3.77;;;;;;;;;;5018042;28;20029;-57
2024/02/25 01:37:52;;;;;;;8.43;3.70;;;;;;;;;;5010538;28;20029;-57
2024/02/25 01:40:18;;;;;;;9.43;3.80;;;;;;;;;;5010666;28;20528;-56
2024/02/25 01:42:43;;;;;;;9.53;4.07;;;;;;;;;;5011908;28;20105;-56
2024/02/25 01:45:08;;;;;;;9.10;3.55;;;;;;;;;;5012181;28;20025;-57
2024/02/25 01:47:33;;;;;;;8.63;3.50;;;;;;;;;;5011956;28;20057;-56
2024/02/25 01:49:59;;;;;;;8.90;3.70;;;;;;;;;;5012369;28;20026;-57
2024/02/25 01:52:24;;;;;;;8.13;3.80;;;;;;;;;;5005707;28;20030;-57
2024/02/25 01:54:50;;;;;;;9.95;3.75;;;;;;;;;;4997785;28;22047;-57
2024/02/25 01:57:15;;;;;;;9.27;3.87;;;;;;;;;;5013934;28;20116;-56
2024/02/25 01:59:41;;;;;;;8.45;3.60;;;;;;;;;;5014940;28;20029;-57
2024/02/25 02:02:13;;;;;;;7.32;3.75;;;;;;;;;;5014759;28;20032;-57
2024/02/25 02:04:38;;;;;;;9.45;3.75;;;;;;;;;;5014088;28;20367;-57
2024/02/25 02:07:03;;;;;;;8.97;4.17;;;;;;;;;;5014443;28;20072;-57
2024/02/25 02:09:30;;;;;;;8.77;3.90;;;;;;;;;;5015097;28;20367;-57
2024/02/25 02:11:56;;;;;;;9.23;3.85;;;;;;;;;;5014937;28;20025;-56
2024/02/25 02:14:21;;;;;;;8.10;3.60;;;;;;;;;;5010572;28;20030;-58
2024/02/25 02:16:47;;;;;;;8.97;3.47;;;;;;;;;;5016375;28;20061;-57
2024/02/25 02:19:13;;;;;;;9.02;4.00;;;;;;;;;;5016531;28;20030;-58
2024/02/25 02:21:38;;;;;;;8.98;4.05;;;;;;;;;;5015104;28;20513;-58
2024/02/25 02:24:03;;;;;;;9.25;3.97;;;;;;;;;;5013342;28;20022;-58
2024/02/25 02:26:28;;;;;;;8.73;3.70;;;;;;;;;;5013833;28;20113;-58
2024/02/25 02:28:55;;;;;;;9.32;3.65;;;;;;;;;;5013960;28;20793;-58
2024/02/25 02:31:20;;;;;;;10.95;4.05;;;;;;;;;;5012271;28;20030;-58
2024/02/25 02:33:46;;;;;;;8.68;4.10;;;;;;;;;;5011359;28;20033;-57
2024/02/25 02:36:11;;;;;;;10.07;3.88;;;;;;;;;;5014725;28;20121;-57
2024/02/25 02:38:36;;;;;;;8.77;3.73;;;;;;;;;;5012015;28;20105;-58
2024/02/25 02:41:01;;;;;;;8.60;3.87;;;;;;;;;;5008731;28;20457;-58
2024/02/25 02:43:27;;;;;;;7.67;3.73;;;;;;;;;;5012392;28;20044;-58
2024/02/25 02:45:52;;;;;;;8.00;3.80;;;;;;;;;;5011401;28;20093;-57
2024/02/25 02:48:18;;;;;;;10.47;3.90;;;;;;;;;;5014360;28;20030;-57
2024/02/25 02:50:44;;;;;;;10.73;4.20;;;;;;;;;;5012727;28;20025;-57
2024/02/25 02:53:09;;;;;;;8.00;3.80;;;;;;;;;;5012589;28;20092;-57
2024/02/25 02:55:34;;;;;;;8.77;4.20;;;;;;;;;;5011348;28;20029;-57
2024/02/25 02:57:59;;;;;;;7.93;3.97;;;;;;;;;;5011656;28;20025;-56
2024/02/25 03:00:24;;;;;;;8.57;4.00;;;;;;;;;;5007652;28;20492;-58
2024/02/25 03:02:49;;;;;;;8.23;4.03;;;;;;;;;;5009511;28;20030;-58
2024/02/25 03:05:15;;;;;;;10.07;4.17;;;;;;;;;;5011622;28;20022;-57
2024/02/25 03:07:40;;;;;;;8.55;4.05;;;;;;;;;;5009222;28;20022;-57
2024/02/25 03:10:06;;;;;;;9.27;3.92;;;;;;;;;;5006757;28;20022;-58
2024/02/25 03:12:31;;;;;;;8.93;4.00;;;;;;;;;;5010713;28;20102;-57
2024/02/25 03:14:56;;;;;;;8.70;3.93;;;;;;;;;;5010301;28;20042;-57
2024/02/25 03:17:22;;;;;;;8.80;4.22;;;;;;;;;;5011705;28;20026;-57
2024/02/25 03:19:47;;;;;;;9.95;4.30;;;;;;;;;;5007478;28;20486;-57
2024/02/25 03:22:13;;;;;;;8.23;4.10;;;;;;;;;;5010397;28;20026;-58
2024/02/25 03:24:38;;;;;;;8.98;3.97;;;;;;;;;;5010318;28;20116;-57
2024/02/25 03:27:04;;;;;;;8.35;3.67;;;;;;;;;;5009137;28;20026;-57
2024/02/25 03:29:29;;;;;;;8.33;3.77;;;;;;;;;;5011054;28;20026;-57
2024/02/25 03:31:54;;;;;;;8.75;4.10;;;;;;;;;;5011000;28;20053;-57
2024/02/25 03:34:19;;;;;;;9.10;4.00;;;;;;;;;;5010609;28;20029;-57
2024/02/25 03:36:44;;;;;;;9.10;4.10;;;;;;;;;;5014485;28;20014;-57
2024/02/25 03:39:10;;;;;;;9.10;4.10;;;;;;;;;;5011984;28;20026;-57
2024/02/25 03:41:35;;;;;;;8.67;4.40;;;;;;;;;;5012647;28;20489;-57
2024/02/25 03:44:00;;;;;;;9.63;4.43;;;;;;;;;;5013985;28;20078;-58
2024/02/25 03:46:25;;;;;;;8.63;4.15;;;;;;;;;;5013894;28;20346;-58
2024/02/25 03:48:50;;;;;;;8.73;4.60;;;;;;;;;;5014491;28;20478;-57
2024/02/25 03:51:15;;;;;;;9.53;4.37;;;;;;;;;;5012991;28;20445;-57
2024/02/25 03:53:43;;;;;;;11.47;4.53;;;;;;;;;;5010947;28;20477;-57
2024/02/25 03:56:09;;;;;;;9.65;4.30;;;;;;;;;;5012321;28;20021;-57
2024/02/25 03:58:34;;;;;;;9.13;4.78;;;;;;;;;;5012332;28;20022;-57
2024/02/25 04:00:59;;;;;;;8.98;4.38;;;;;;;;;;5011539;28;20386;-58
2024/02/25 04:03:24;;;;;;;12.70;4.73;;;;;;;;;;5012029;28;20057;-58
2024/02/25 04:05:49;;;;;;;9.27;4.30;;;;;;;;;;5011356;28;20110;-57
2024/02/25 04:08:15;;;;;;;9.50;4.60;;;;;;;;;;5015789;28;20025;-58
2024/02/25 04:10:40;;;;;;;8.45;4.53;;;;;;;;;;5007932;28;20397;-57
2024/02/25 04:13:05;;;;;;;10.73;4.80;;;;;;;;;;5016042;28;20456;-57
2024/02/25 04:15:30;;;;;;;9.20;4.68;;;;;;;;;;5015931;28;20069;-57
2024/02/25 04:17:55;;;;;;;9.93;4.70;;;;;;;;;;5016880;28;20033;-58
2024/02/25 04:20:22;;;;;;;10.68;4.97;;;;;;;;;;5016018;28;20025;-57
2024/02/25 04:22:47;;;;;;;9.43;4.60;;;;;;;;;;5015773;28;20014;-57
2024/02/25 04:25:12;;;;;;;9.53;4.20;;;;;;;;;;5015937;28;20522;-59
2024/02/25 04:27:37;;;;;;;8.87;4.43;;;;;;;;;;5013696;28;20038;-58
2024/02/25 04:30:03;;;;;;;9.40;5.00;;;;;;;;;;5005571;28;20038;-57
2024/02/25 04:32:28;;;;;;;9.25;4.70;;;;;;;;;;5013787;28;20045;-57
2024/02/25 04:34:53;;;;;;;9.18;4.15;;;;;;;;;;5012795;28;20474;-58
2024/02/25 04:37:18;;;;;;;8.67;4.20;;;;;;;;;;5016594;28;20033;-58
2024/02/25 04:39:43;;;;;;;9.52;4.90;;;;;;;;;;5013802;28;20081;-58
2024/02/25 04:42:08;;;;;;;11.03;5.30;;;;;;;;;;5013557;28;20024;-57
2024/02/25 04:44:34;;;;;;;10.55;4.55;;;;;;;;;;5012992;28;20045;-57
2024/02/25 04:46:59;;;;;;;11.53;4.60;;;;;;;;;;5014346;28;20536;-58
2024/02/25 04:49:24;;;;;;;9.63;4.70;;;;;;;;;;5013965;28;20022;-59
2024/02/25 04:51:49;;;;;;;9.85;4.90;;;;;;;;;;5014092;28;20096;-56
2024/02/25 04:54:15;;;;;;;9.87;4.17;;;;;;;;;;5013297;28;20025;-59
2024/02/25 04:56:44;;;;;;;10.73;4.90;;;;;;;;;;5011828;28;20044;-59
2024/02/25 04:59:09;;;;;;;10.25;4.53;;;;;;;;;;5013123;28;20018;-57
2024/02/25 05:01:34;;;;;;;9.90;4.57;;;;;;;;;;5007016;28;20027;-58
2024/02/25 05:03:59;;;;;;;14.50;4.70;;;;;;;;;;5012782;28;20436;-58
2024/02/25 05:06:24;;;;;;;11.00;5.10;;;;;;;;;;5013670;28;20030;-59
2024/02/25 05:08:50;;;;;;;10.80;4.43;;;;;;;;;;5013331;28;20537;-58
2024/02/25 05:11:15;;;;;;;11.53;4.60;;;;;;;;;;5012956;28;20054;-57
2024/02/25 05:13:43;;;;;;;10.53;4.70;;;;;;;;;;5010499;28;20033;-57
2024/02/25 05:16:09;;;;;;;10.95;4.80;;;;;;;;;;5012977;28;20402;-58
2024/02/25 05:18:34;;;;;;;8.48;4.28;;;;;;;;;;5010598;28;20033;-57
2024/02/25 05:21:02;;;;;;;11.05;4.72;;;;;;;;;;5012650;28;20022;-58
2024/02/25 05:23:28;;;;;;;9.50;4.57;;;;;;;;;;5012929;28;20437;-58
2024/02/25 05:25:53;;;;;;;8.20;4.35;;;;;;;;;;5013156;28;20532;-57
2024/02/25 05:28:18;;;;;;;9.35;4.65;;;;;;;;;;5012671;28;20084;-58
2024/02/25 05:30:43;;;;;;;10.50;4.80;;;;;;;;;;5012554;28;20504;-58
2024/02/25 05:33:08;;;;;;;10.43;5.30;;;;;;;;;;5006704;28;20096;-58
2024/02/25 05:35:36;;;;;;;9.80;5.20;;;;;;;;;;5019579;28;20096;-57
2024/02/25 05:38:01;;;;;;;11.40;5.00;;;;;;;;;;5002640;28;20083;-58
2024/02/25 05:40:26;;;;;;;9.30;4.75;;;;;;;;;;5011362;28;20366;-58
2024/02/25 05:42:51;;;;;;;11.02;4.47;;;;;;;;;;5009675;28;20018;-57
2024/02/25 05:45:16;;;;;;;8.63;4.55;;;;;;;;;;5012126;28;20097;-57
2024/02/25 05:47:42;;;;;;;9.73;5.00;;;;;;;;;;5012171;28;20544;-57
2024/02/25 05:50:07;;;;;;;9.93;4.97;;;;;;;;;;5012042;28;20041;-58
2024/02/25 05:52:32;;;;;;;8.95;4.85;;;;;;;;;;5009822;28;20440;-57
2024/02/25 05:54:57;;;;;;;8.70;4.47;;;;;;;;;;5007888;28;20080;-57
2024/02/25 05:57:23;;;;;;;10.23;5.00;;;;;;;;;;5011200;28;20511;-57
2024/02/25 05:59:48;;;;;;;9.57;5.07;;;;;;;;;;5011101;28;20421;-56
2024/02/25 06:02:14;;;;;;;11.40;5.43;;;;;;;;;;5010483;28;20539;-58
2024/02/25 06:04:39;;;;;;;9.45;4.55;;;;;;;;;;5009730;28;20025;-57
2024/02/25 06:07:04;;;;;;;9.27;4.63;;;;;;;;;;5015030;28;20064;-57
2024/02/25 06:09:29;;;;;;;9.13;4.50;;;;;;;;;;5012562;28;21069;-56
2024/02/25 06:11:54;;;;;;;9.60;4.53;;;;;;;;;;5002302;28;20062;-57
2024/02/25 06:14:20;;;;;;;10.65;5.25;;;;;;;;;;5014543;28;20029;-57
2024/02/25 06:16:45;;;;;;;10.05;5.05;;;;;;;;;;5020544;28;20067;-58
2024/02/25 06:19:10;;;;;;;9.70;5.00;;;;;;;;;;5009606;28;20501;-58
2024/02/25 06:21:35;;;;;;;11.07;4.73;;;;;;;;;;5013048;28;20022;-58
2024/02/25 06:24:00;;;;;;;10.20;5.40;;;;;;;;;;5007991;28;20037;-58
2024/02/25 06:26:26;;;;;;;10.10;5.00;;;;;;;;;;5007533;28;20041;-58
2024/02/25 06:28:53;;;;;;;10.13;4.63;;;;;;;;;;5012324;28;20034;-58
2024/02/25 06:31:18;;;;;;;8.88;4.70;;;;;;;;;;5016430;28;20022;-57
2024/02/25 06:33:43;;;;;;;9.23;4.77;;;;;;;;;;5013566;28;20018;-57
2024/02/25 06:36:17;;;;;;;9.55;5.25;;;;;;;;;;5017990;28;20021;-58
2024/02/25 06:38:42;;;;;;;9.23;4.97;;;;;;;;;;5013475;28;20033;-58
2024/02/25 06:41:15;;;;;;;10.07;4.28;;;;;;;;;;5018918;28;20042;-58
2024/02/25 06:43:40;;;;;;;9.13;4.50;;;;;;;;;;5017574;28;20030;-58
2024/02/25 06:46:05;;;;;;;10.18;4.60;;;;;;;;;;5012214;28;20026;-58
2024/02/25 06:48:31;;;;;;;9.93;4.38;;;;;;;;;;5011219;28;20022;-58
2024/02/25 06:50:56;;;;;;;9.05;4.70;;;;;;;;;;5010667;28;20038;-58
2024/02/25 06:53:21;;;;;;;10.07;5.07;;;;;;;;;;5010027;28;20111;-60
2024/02/25 06:55:46;;;;;;;11.52;5.10;;;;;;;;;;5010900;28;20021;-57
2024/02/25 06:58:11;;;;;;;8.80;4.07;;;;;;;;;;5010923;28;20026;-57
2024/02/25 07:00:38;;;;;;;9.27;4.30;;;;;;;;;;5010228;28;20025;-56
2024/02/25 07:03:03;;;;;;;8.85;4.70;;;;;;;;;;5003915;28;20105;-57
2024/02/25 07:05:28;;;;;;;9.77;4.73;;;;;;;;;;5010659;28;20034;-57
2024/02/25 07:07:53;;;;;;;9.57;4.53;;;;;;;;;;5010362;28;20036;-59
2024/02/25 07:10:20;;;;;;;9.10;4.47;;;;;;;;;;5009580;28;20022;-58
2024/02/25 07:12:45;;;;;;;9.20;4.72;;;;;;;;;;5010933;28;20018;-57
2024/02/25 07:15:10;;;;;;;9.98;5.13;;;;;;;;;;5010806;28;20041;-57
2024/02/25 07:17:38;;;;;;;9.83;5.43;;;;;;;;;;5009245;28;20486;-57
2024/02/25 07:20:03;;;;;;;9.63;4.68;;;;;;;;;;5009344;28;20394;-58
2024/02/25 07:22:29;;;;;;;9.25;4.80;;;;;;;;;;5010963;28;20025;-58
2024/02/25 07:24:54;;;;;;;8.63;4.40;;;;;;;;;;5003096;28;20029;-57
2024/02/25 07:27:19;;;;;;;9.70;5.18;;;;;;;;;;5005917;28;20057;-57
2024/02/25 07:29:44;;;;;;;8.90;5.05;;;;;;;;;;5013433;28;20098;-58
2024/02/25 07:32:09;;;;;;;8.40;4.67;;;;;;;;;;4998093;28;20034;-58
2024/02/25 07:34:34;;;;;;;9.38;5.05;;;;;;;;;;5008455;28;20032;-57
2024/02/25 07:36:59;;;;;;;9.07;4.82;;;;;;;;;;5006404;28;20026;-59
2024/02/25 07:39:25;;;;;;;9.60;4.87;;;;;;;;;;5009147;28;20026;-58
2024/02/25 07:41:50;;;;;;;8.52;4.57;;;;;;;;;;5009616;28;20022;-57
2024/02/25 07:44:15;;;;;;;9.98;4.75;;;;;;;;;;5010299;28;20025;-58
2024/02/25 07:46:41;;;;;;;9.23;5.03;;;;;;;;;;5010798;28;20583;-57
2024/02/25 07:49:06;;;;;;;12.23;6.10;;;;;;;;;;5015499;28;20437;-56
2024/02/25 07:51:36;;;;;;;9.33;4.80;;;;;;;;;;5013192;28;20022;-57
2024/02/25 07:54:01;;;;;;;10.70;5.22;;;;;;;;;;5014731;28;20038;-58
2024/02/25 07:56:27;;;;;;;9.87;5.10;;;;;;;;;;5013107;28;20028;-57
2024/02/25 07:58:52;;;;;;;10.27;5.38;;;;;;;;;;5008393;28;20389;-58
2024/02/25 08:01:17;;;;;;;10.20;5.20;;;;;;;;;;5005727;28;20033;-60
2024/02/25 08:03:42;;;;;;;9.33;5.03;;;;;;;;;;5016070;28;20459;-59
2024/02/25 08:06:07;;;;;;;9.53;5.10;;;;;;;;;;5016747;28;20032;-58
2024/02/25 08:08:32;;;;;;;11.35;5.93;;;;;;;;;;5020079;28;20497;-58
2024/02/25 08:10:58;;;;;;;10.68;5.85;;;;;;;;;;5032394;28;20508;-58
2024/02/25 08:13:23;;;;;;;8.40;4.72;;;;;;;;;;5018940;28;20091;-59
2024/02/25 08:15:48;;;;;;;11.27;5.13;;;;;;;;;;5018541;28;20088;-58
2024/02/25 08:18:13;;;;;;;10.55;5.13;;;;;;;;;;5027994;28;20025;-58
2024/02/25 08:20:39;;;;;;;8.90;5.03;;;;;;;;;;5036256;28;20021;-58
2024/02/25 08:23:04;;;;;;;8.85;5.13;;;;;;;;;;5020875;28;20037;-58
2024/02/25 08:25:29;;;;;;;9.50;5.03;;;;;;;;;;5019885;28;20061;-57
2024/02/25 08:27:54;;;;;;;9.98;5.70;;;;;;;;;;5020947;28;20080;-58
2024/02/25 08:30:20;;;;;;;10.17;5.80;;;;;;;;;;5013288;28;20087;-58
2024/02/25 08:32:45;;;;;;;10.52;6.05;;;;;;;;;;5012227;28;20483;-58
2024/02/25 08:35:11;;;;;;;10.10;6.03;;;;;;;;;;5012726;28;20176;-58
2024/02/25 08:37:36;;;;;;;10.52;5.70;;;;;;;;;;5018518;28;20044;-58
2024/02/25 08:40:01;;;;;;;10.60;6.00;;;;;;;;;;5013607;28;20470;-58
2024/02/25 08:42:27;;;;;;;11.10;6.17;;;;;;;;;;5013921;28;20060;-58
2024/02/25 08:44:53;;;;;;;14.43;5.83;;;;;;;;;;5015357;28;20072;-57
2024/02/25 08:47:18;;;;;;;10.48;5.80;;;;;;;;;;5015239;28;20052;-58
2024/02/25 08:49:43;;;;;;;11.00;5.97;;;;;;;;;;5020096;28;20474;-59
2024/02/25 08:52:09;;;;;;;9.77;5.43;;;;;;;;;;5013535;28;20014;-59
2024/02/25 08:54:38;;;;;;;11.23;6.10;;;;;;;;;;5011447;28;20029;-58
2024/02/25 08:57:05;;;;;;;10.50;5.63;;;;;;;;;;5015007;28;20157;-56
2024/02/25 08:59:30;;;;;;;10.35;5.80;;;;;;;;;;5018791;28;20536;-57
2024/02/25 09:01:55;;;;;;;11.15;6.03;;;;;;;;;;5017983;28;20034;-58
2024/02/25 09:04:24;;;;;;;10.70;6.10;;;;;;;;;;5013896;28;20434;-58
2024/02/25 09:06:49;;;;;;;11.00;6.25;;;;;;;;;;5013933;28;20029;-57
2024/02/25 09:09:14;;;;;;;10.80;5.67;;;;;;;;;;5018552;28;20406;-59
2024/02/25 09:11:41;;;;;;;10.18;5.70;;;;;;;;;;5017367;28;20107;-57
2024/02/25 09:14:06;;;;;;;12.18;5.85;;;;;;;;;;5004917;28;20168;-57
2024/02/25 09:16:31;;;;;;;11.45;5.85;;;;;;;;;;4996035;28;20057;-58
2024/02/25 09:18:56;;;;;;;9.83;5.00;;;;;;;;;;5017194;28;20030;-57
2024/02/25 09:21:21;;;;;;;10.25;5.10;;;;;;;;;;5010043;28;20117;-59
2024/02/25 09:23:46;;;;;;;9.73;5.47;;;;;;;;;;5012695;28;20084;-60
2024/02/25 09:26:12;;;;;;;10.47;5.90;;;;;;;;;;5013429;28;20029;-59
2024/02/25 09:28:37;;;;;;;9.82;5.55;;;;;;;;;;5001416;28;20058;-57
2024/02/25 09:31:03;;;;;;;9.70;5.40;;;;;;;;;;5007773;28;20371;-59
2024/02/25 09:33:30;;;;;;;9.47;5.27;;;;;;;;;;5013429;28;20021;-58
2024/02/25 09:35:57;;;;;;;9.90;5.50;;;;;;;;;;5013019;28;20024;-57
2024/02/25 09:38:23;;;;;;;8.85;5.38;;;;;;;;;;5014562;28;20035;-57
2024/02/25 09:40:53;;;;;;;11.50;5.68;;;;;;;;;;5017877;28;20104;-58
2024/02/25 09:43:18;;;;;;;9.95;4.95;;;;;;;;;;5012829;28;20025;-59
2024/02/25 09:45:45;;;;;;;10.65;5.50;;;;;;;;;;5012919;28;20022;-57
2024/02/25 09:48:10;;;;;;;10.52;5.35;;;;;;;;;;5012864;28;20056;-59
2024/02/25 09:50:36;;;;;;;11.38;5.47;;;;;;;;;;5013841;28;20644;-58
2024/02/25 09:53:02;;;;;;;10.68;5.55;;;;;;;;;;5012990;28;20037;-59
2024/02/25 09:55:27;;;;;;;10.30;5.22;;;;;;;;;;5011820;28;20030;-57
2024/02/25 09:57:52;;;;;;;9.82;5.50;;;;;;;;;;5013480;28;20014;-58
2024/02/25 10:00:17;;;;;;;8.97;5.00;;;;;;;;;;5012756;28;20025;-56
2024/02/25 10:02:44;;;;;;;10.10;5.53;;;;;;;;;;5012514;28;20036;-57
2024/02/25 10:05:12;;;;;;;9.20;5.18;;;;;;;;;;5010643;28;20041;-59
2024/02/25 10:07:37;;;;;;;9.65;5.07;;;;;;;;;;4996051;28;20100;-59
2024/02/25 10:10:02;;;;;;;9.35;4.90;;;;;;;;;;4992207;28;20482;-57
2024/02/25 10:12:28;;;;;;;8.07;4.63;;;;;;;;;;5012305;28;20044;-58
2024/02/25 10:14:54;;;;;;;9.45;5.32;;;;;;;;;;5011250;28;20024;-58
2024/02/25 10:17:21;;;;;;;8.93;4.85;;;;;;;;;;5011953;28;20026;-58
2024/02/25 10:19:50;;;;;;;8.82;4.47;;;;;;;;;;5012103;28;20014;-58
2024/02/25 10:22:16;;;;;;;9.40;4.90;;;;;;;;;;5002323;28;20084;-58
2024/02/25 10:24:43;;;;;;;10.10;4.75;;;;;;;;;;4992784;28;20394;-60
2024/02/25 10:27:09;;;;;;;9.40;4.95;;;;;;;;;;4996771;28;20030;-59
2024/02/25 10:29:55;;;;;;;9.20;4.95;;;;;;;;;;5012032;28;20029;-60
2024/02/25 10:32:21;;;;;;;8.43;4.65;;;;;;;;;;5011988;28;20050;-59
2024/02/25 10:34:47;;;;;;;9.10;4.80;;;;;;;;;;5012830;28;20030;-59
2024/02/25 10:37:12;;;;;;;9.57;4.67;;;;;;;;;;5012775;28;20032;-60
2024/02/25 10:39:38;;;;;;;8.70;4.30;;;;;;;;;;5013738;28;20025;-58
2024/02/25 10:42:03;;;;;;;10.15;5.22;;;;;;;;;;5013387;28;20029;-59
2024/02/25 10:44:28;;;;;;;9.63;4.85;;;;;;;;;;5012226;28;20074;-59
2024/02/25 10:46:54;;;;;;;8.85;4.50;;;;;;;;;;5016050;28;20014;-58
2024/02/25 10:49:20;;;;;;;8.48;4.50;;;;;;;;;;5013959;28;20068;-58
2024/02/25 10:51:45;;;;;;;8.65;4.43;;;;;;;;;;5014788;28;20022;-58
2024/02/25 10:54:12;;;;;;;9.15;5.00;;;;;;;;;;5013665;28;20033;-58
2024/02/25 10:56:38;;;;;;;10.10;5.18;;;;;;;;;;5014997;28;20474;-59
2024/02/25 10:59:04;;;;;;;11.10;5.30;;;;;;;;;;5012000;28;20052;-58
2024/02/25 11:01:29;;;;;;;9.10;4.70;;;;;;;;;;5012262;28;20423;-58
2024/02/25 11:03:54;;;;;;;9.33;4.70;;;;;;;;;;5016225;28;20026;-59
2024/02/25 11:06:30;;;;;;;9.25;4.25;;;;;;;;;;5012150;28;20014;-60
2024/02/25 11:09:00;;;;;;;9.60;4.13;;;;;;;;;;5010439;28;20104;-59
2024/02/25 11:11:25;;;;;;;10.27;5.13;;;;;;;;;;5011947;28;20097;-58
2024/02/25 11:13:50;;;;;;;11.40;4.30;;;;;;;;;;5012310;28;20521;-58
2024/02/25 11:16:15;;;;;;;9.02;3.72;;;;;;;;;;5015639;28;20030;-58
2024/02/25 11:18:43;;;;;;;7.93;3.90;;;;;;;;;;5019215;28;20042;-58
2024/02/25 11:21:08;;;;;;;6.38;3.33;;;;;;;;;;5016207;28;20068;-57
2024/02/25 11:23:43;;;;;;;6.80;3.42;;;;;;;;;;5016025;28;20054;-59
2024/02/25 11:26:27;;;;;;;6.72;3.17;;;;;;;;;;5015631;28;20033;-58
2024/02/25 11:28:52;;;;;;;;;;;;;;;;;;5016562;28;20022;-59
2024/02/25 11:31:36;;;;;;;4.78;2.03;;;;;;;;;;5014516;28;19916;-59
2024/02/25 11:34:01;;;;;;;6.85;2.10;;;;;;;;;;5006886;28;20060;-60
2024/02/25 11:36:27;;;;;;;6.07;2.00;;;;;;;;;;5021088;28;20516;-57
2024/02/25 11:38:55;;;;;;;4.95;1.85;;;;;;;;;;5019252;28;20548;-58
2024/02/25 11:41:26;;;;;;;4.25;1.70;;;;;;;;;;5016828;28;20014;-59
2024/02/25 11:43:52;;;;;;;5.35;2.15;;;;;;;;;;5016039;28;20088;-60
2024/02/25 11:46:18;;;;;;;5.28;2.30;;;;;;;;;;5016574;28;20029;-59
2024/02/25 11:48:43;;;;;;;6.53;2.38;;;;;;;;;;5014813;28;20504;-58
2024/02/25 11:51:08;;;;;;;6.18;2.67;;;;;;;;;;5016033;28;20025;-58
2024/02/25 11:53:34;;;;;;;6.43;2.60;;;;;;;;;;5013618;28;20022;-56
2024/02/25 11:55:59;;;;;;;5.10;2.30;;;;;;;;;;5014749;28;20113;-58
2024/02/25 11:58:25;;;;;;;5.75;2.70;;;;;;;;;;5019169;28;20049;-59
2024/02/25 12:00:50;;;;;;;6.50;3.10;;;;;;;;;;5020009;28;20549;-58
2024/02/25 12:03:17;;;;;;;6.13;3.00;;;;;;;;;;5014503;28;20050;-58
2024/02/25 12:05:43;;;;;;;7.30;3.63;;;;;;;;;;5019744;28;20556;-58
2024/02/25 12:08:10;;;;;;;5.88;2.83;;;;;;;;;;5013324;28;20101;-58
2024/02/25 12:10:36;;;;;;;9.05;3.90;;;;;;;;;;5015844;28;20076;-58
2024/02/25 12:13:03;;;;;;;7.63;3.60;;;;;;;;;;5015318;28;20121;-58
2024/02/25 12:15:29;;;;;;;8.90;3.83;;;;;;;;;;5014040;28;20029;-58
2024/02/25 12:17:55;;;;;;;7.88;3.97;;;;;;;;;;5011857;28;20014;-57
2024/02/25 12:20:20;;;;;;;;;;;;;;;;;;5020548;28;20033;-58
2024/02/25 12:22:46;;;;;;;8.07;3.90;;;;;;;;;;5017849;28;19909;-58
2024/02/25 12:25:17;;;;;;;9.40;3.93;;;;;;;;;;5014358;28;20037;-58
2024/02/25 12:27:43;;;;;;;9.15;4.72;;;;;;;;;;5013494;28;20030;-59
2024/02/25 12:30:12;;;;;;;8.65;4.80;;;;;;;;;;5014194;28;20029;-57
2024/02/25 12:32:38;;;;;;;8.57;4.85;;;;;;;;;;5005779;28;20592;-58
2024/02/25 12:35:04;;;;;;;9.32;5.18;;;;;;;;;;5010727;28;20022;-58
2024/02/25 12:37:30;;;;;;;10.95;5.70;;;;;;;;;;5010122;28;20069;-60
2024/02/25 12:39:58;;;;;;;9.57;5.28;;;;;;;;;;5009839;28;20018;-58
2024/02/25 12:42:26;;;;;;;9.80;5.45;;;;;;;;;;5010817;28;20107;-59
2024/02/25 12:44:51;;;;;;;13.07;7.18;;;;;;;;;;5010866;28;20033;-58
2024/02/25 12:47:16;;;;;;;11.83;6.23;;;;;;;;;;5010992;28;20032;-58
2024/02/25 12:49:46;;;;;;;10.90;6.67;;;;;;;;;;5011082;28;20057;-58
2024/02/25 12:52:11;;;;;;;11.10;6.15;;;;;;;;;;5010773;28;20549;-58
2024/02/25 12:54:36;;;;;;;9.35;5.68;;;;;;;;;;5013157;28;20034;-57
2024/02/25 12:57:01;;;;;;;12.13;6.65;;;;;;;;;;5006912;28;20637;-58
2024/02/25 12:59:27;;;;;;;10.70;6.40;;;;;;;;;;5008824;28;20057;-57
2024/02/25 13:01:52;;;;;;;9.93;6.03;;;;;;;;;;5007473;28;20120;-58
2024/02/25 13:04:19;;;;;;;10.18;6.07;;;;;;;;;;5021794;28;20047;-57
2024/02/25 13:06:45;;;;;;;9.95;5.07;;;;;;;;;;5012357;28;20022;-58
2024/02/25 13:09:10;;;;;;;9.73;4.87;;;;;;;;;;5013439;28;20030;-59
2024/02/25 13:11:35;;;;;;;10.67;5.20;;;;;;;;;;5017516;28;20037;-59
2024/02/25 13:14:00;;;;;;;9.03;5.00;;;;;;;;;;5012178;28;20121;-58
2024/02/25 13:16:26;;;;;;;11.00;5.93;;;;;;;;;;5008634;28;20050;-59
2024/02/25 13:18:51;;;;;;;11.18;6.20;;;;;;;;;;5010314;28;20804;-58
2024/02/25 13:21:18;;;;;;;10.52;5.82;;;;;;;;;;5014008;28;20026;-58
2024/02/25 13:23:43;;;;;;;11.20;6.43;;;;;;;;;;5010105;28;20056;-58
2024/02/25 13:26:10;;;;;;;12.13;6.43;;;;;;;;;;5012122;28;20034;-57
2024/02/25 13:28:36;;;;;;;10.65;6.07;;;;;;;;;;5011601;28;20025;-58
2024/02/25 13:31:01;;;;;;;10.77;6.50;;;;;;;;;;5007525;28;20559;-58
2024/02/25 13:33:27;;;;;;;9.93;5.60;;;;;;;;;;5010448;28;20033;-59
2024/02/25 13:35:53;;;;;;;12.45;7.25;;;;;;;;;;5028593;28;20037;-58
2024/02/25 13:38:18;;;;;;;10.60;6.75;;;;;;;;;;5028729;28;20014;-57
2024/02/25 13:40:45;;;;;;;11.07;6.18;;;;;;;;;;5013496;28;20018;-59
2024/02/25 13:43:10;;;;;;;11.82;6.30;;;;;;;;;;5007737;28;20030;-57
2024/02/25 13:45:45;;;;;;;11.50;6.83;;;;;;;;;;5011517;28;20097;-58
2024/02/25 13:48:10;;;;;;;11.38;6.38;;;;;;;;;;5014022;28;20375;-57
2024/02/25 13:50:35;;;;;;;11.20;6.35;;;;;;;;;;5009741;28;20021;-57
2024/02/25 13:53:02;;;;;;;9.48;6.15;;;;;;;;;;5010515;28;20436;-57
2024/02/25 13:55:28;;;;;;;12.20;6.45;;;;;;;;;;5008505;28;20769;-57
2024/02/25 13:57:53;;;;;;;11.10;6.30;;;;;;;;;;5009586;28;20101;-58
2024/02/25 14:00:18;;;;;;;12.03;6.50;;;;;;;;;;5009237;28;20046;-57
2024/02/25 14:02:43;;;;;;;9.48;5.80;;;;;;;;;;5009546;28;20045;-57
2024/02/25 14:05:09;;;;;;;10.63;5.28;;;;;;;;;;5000632;28;20038;-57
2024/02/25 14:07:34;;;;;;;9.13;5.40;;;;;;;;;;5002407;28;20838;-59
2024/02/25 14:09:59;;;;;;;10.80;4.93;;;;;;;;;;5008946;28;20113;-57
2024/02/25 14:12:25;;;;;;;8.75;4.65;;;;;;;;;;5010763;28;20040;-58
2024/02/25 14:14:50;;;;;;;10.07;4.77;;;;;;;;;;5010685;28;20060;-58
2024/02/25 14:17:15;;;;;;;9.07;4.75;;;;;;;;;;5007111;28;20030;-59
2024/02/25 14:19:40;;;;;;;9.93;5.00;;;;;;;;;;5008998;28;20026;-57
2024/02/25 14:22:06;;;;;;;7.82;4.43;;;;;;;;;;5010657;28;20022;-57
2024/02/25 14:24:31;;;;;;;8.80;5.10;;;;;;;;;;5007016;28;20033;-59
2024/02/25 14:26:56;;;;;;;8.65;5.13;;;;;;;;;;5008124;28;20177;-58
2024/02/25 14:29:21;;;;;;;10.50;5.53;;;;;;;;;;5003746;28;20057;-57
2024/02/25 14:31:47;;;;;;;11.00;5.83;;;;;;;;;;5000525;28;20034;-57